createdAt,value
2023-05-01T00:09:12.603Z,100408.78
2023-05-01T00:19:18.468Z,100396.00
2023-05-01T00:29:23.797Z,100391.44
2023-05-01T00:39:27.514Z,100378.47
2023-05-01T00:49:32.551Z,100376.22
2023-05-01T00:59:36.306Z,100366.69
2023-05-01T01:09:57.522Z,100354.22
2023-05-01T01:20:28.187Z,100341.31
2023-05-01T01:31:05.700Z,100326.25
2023-05-01T01:41:17.260Z,100334.03
2023-05-01T01:51:23.598Z,100317.38
2023-05-01T02:01:30.645Z,100311.56
2023-05-01T02:11:36.213Z,100309.00
2023-05-01T02:21:41.716Z,100308.13
2023-05-01T02:31:45.318Z,100306.69
2023-05-01T02:41:51.998Z,100306.63
2023-05-01T02:51:57.648Z,100305.31
2023-05-01T03:02:02.701Z,100284.16
2023-05-01T03:12:06.856Z,100290.03
2023-05-01T03:22:11.723Z,100284.13
2023-05-01T03:32:16.734Z,100283.97
2023-05-01T03:42:21.852Z,100269.78
2023-05-01T03:52:26.336Z,100263.56
2023-05-01T04:02:31.698Z,100278.28
2023-05-01T04:12:35.359Z,100273.38
2023-05-01T04:22:40.361Z,100274.28
2023-05-01T04:32:43.896Z,100275.38
2023-05-01T04:42:48.984Z,100270.97
2023-05-01T04:52:52.514Z,100273.16
2023-05-01T05:02:57.620Z,100267.94
2023-05-01T05:13:01.242Z,100267.00
2023-05-01T05:23:07.343Z,100257.16
2023-05-01T05:33:11.983Z,100254.38
2023-05-01T05:43:16.976Z,100251.19
2023-05-01T05:53:20.776Z,100248.66
2023-05-01T06:03:27.300Z,100246.22
2023-05-01T06:13:31.138Z,100237.50
2023-05-01T06:23:36.162Z,100225.59
2023-05-01T06:33:39.724Z,100222.75
2023-05-01T06:43:44.808Z,100215.47
2023-05-01T06:53:48.426Z,100220.06
2023-05-01T07:03:53.350Z,100216.22
2023-05-01T07:13:57.048Z,100211.44
2023-05-01T07:24:01.996Z,100205.63
2023-05-01T07:34:05.718Z,100204.03
2023-05-01T07:44:10.672Z,100195.38
2023-05-01T07:54:15.697Z,100191.97
2023-05-01T08:04:22.647Z,100182.38
2023-05-01T08:14:26.356Z,100177.16
2023-05-01T08:24:31.325Z,100164.81
2023-05-01T08:34:34.965Z,100168.91
2023-05-01T08:44:42.110Z,100159.09
2023-05-01T08:54:47.142Z,100144.47
2023-05-01T09:04:53.165Z,100142.25
2023-05-01T09:14:58.163Z,100142.50
2023-05-01T09:25:03.793Z,100144.41
2023-05-01T09:35:13.605Z,100134.38
2023-05-01T09:45:20.061Z,100119.00
2023-05-01T09:55:25.552Z,100113.97
2023-05-01T10:05:44.437Z,100112.63
2023-05-01T10:15:48.227Z,100107.63
2023-05-01T10:25:54.410Z,100100.00
2023-05-01T10:36:01.640Z,100100.03
2023-05-01T10:46:32.089Z,100110.31
2023-05-01T10:56:43.960Z,100082.22
2023-05-01T11:07:17.853Z,100081.38
2023-05-01T11:17:47.155Z,100074.50
2023-05-01T11:27:56.721Z,100080.41
2023-05-01T11:38:00.387Z,100069.38
2023-05-01T11:48:15.953Z,100061.66
2023-05-01T11:58:31.992Z,100062.50
2023-05-01T12:08:37.189Z,100039.38
2023-05-01T12:18:41.136Z,100039.41
2023-05-01T12:28:57.421Z,100035.13
2023-05-01T12:39:03.692Z,100030.81
2023-05-01T12:49:08.983Z,100024.78
2023-05-01T12:59:22.877Z,100016.25
2023-05-01T13:09:30.895Z,100009.47
2023-05-01T13:19:34.829Z,100006.34
2023-05-01T13:29:41.721Z,100003.09
2023-05-01T13:39:47.106Z,99987.13
2023-05-01T13:49:56.732Z,99991.47
2023-05-01T14:00:00.570Z,99992.56
2023-05-01T14:10:11.017Z,99985.09
2023-05-01T14:20:14.984Z,99979.41
2023-05-01T14:30:29.866Z,99974.25
2023-05-01T14:40:34.982Z,99982.03
2023-05-01T14:50:41.106Z,99980.34
2023-05-01T15:00:44.725Z,99972.53
2023-05-01T15:10:49.671Z,99973.41
2023-05-01T15:20:53.289Z,99980.34
2023-05-01T15:30:58.380Z,99981.22
2023-05-01T15:41:01.985Z,99967.47
2023-05-01T15:51:07.267Z,99963.16
2023-05-01T16:01:13.364Z,99963.09
2023-05-01T16:11:18.381Z,99956.25
2023-05-01T16:21:22.520Z,99975.81
2023-05-01T16:31:28.209Z,99972.56
2023-05-01T16:41:31.999Z,99989.69
2023-05-01T16:51:37.263Z,99993.13
2023-05-01T17:01:40.912Z,99983.94
2023-05-01T17:11:46.268Z,99996.25
2023-05-01T17:21:49.878Z,100016.28
2023-05-01T17:31:54.990Z,100023.03
2023-05-01T17:41:58.615Z,100028.88
2023-05-01T17:52:03.608Z,100038.84
2023-05-01T18:02:07.818Z,100048.13
2023-05-01T18:12:13.326Z,100052.94
2023-05-01T18:22:17.195Z,100063.72
2023-05-01T18:32:26.189Z,100080.22
2023-05-01T18:42:33.929Z,100077.31
2023-05-01T18:52:39.023Z,100098.38
2023-05-01T19:02:43.042Z,100124.28
2023-05-01T19:12:48.015Z,100139.16
2023-05-01T19:22:51.603Z,100157.75
2023-05-01T19:32:57.831Z,100184.78
2023-05-01T19:43:01.629Z,100193.63
2023-05-01T19:53:06.668Z,100199.66
2023-05-01T20:03:10.777Z,100207.41
2023-05-01T20:13:15.887Z,100203.22
2023-05-01T20:23:22.793Z,100239.56
2023-05-01T20:33:27.825Z,100234.91
2023-05-01T20:43:31.390Z,100248.13
2023-05-01T20:53:36.516Z,100259.03
2023-05-01T21:03:40.572Z,100261.94
2023-05-01T21:13:45.629Z,100271.56
2023-05-01T21:23:49.774Z,100282.44
2023-05-01T21:33:55.079Z,100284.06
2023-05-01T21:43:58.901Z,100295.00
2023-05-01T21:54:06.479Z,100293.94
2023-05-01T22:04:10.223Z,100305.50
2023-05-01T22:14:16.189Z,100312.19
2023-05-01T22:24:20.405Z,100313.56
2023-05-01T22:34:25.515Z,100322.00
2023-05-01T22:44:29.107Z,100334.28
2023-05-01T22:54:34.439Z,100343.44
2023-05-01T23:04:38.222Z,100364.19
2023-05-01T23:14:46.668Z,100372.72
2023-05-01T23:24:50.806Z,100380.25
2023-05-01T23:34:57.353Z,100378.28
2023-05-01T23:45:01.112Z,100378.31
2023-05-01T23:55:06.768Z,100381.31
